Time;durP1;ratioP1;P1;durP2;ratioP2;P2;SDS_P1;SDS_P2;PMS_P1;PMS_P2;Temp;Humidity;BMP_temperature;BMP_pressure;BME280_temperature;BME280_humidity;BME280_pressure;Samples;Min_cycle;Max_cycle;Signal;HPM_P1;HPM_P2
2021/03/31 00:00:34;;;;;;;;;;;;;;;7.99;62.33;97696.05;1716797;83;20523;-66
2021/03/31 00:03:06;;;;;;;;;;;;;;;7.99;62.28;97691.34;1721412;80;20222;-67
2021/03/31 00:05:34;;;;;;;;;;;;;;;7.98;62.39;97687.09;1728146;82;20230;-67
2021/03/31 00:08:01;;;;;;;;;;;;;;;8.00;62.30;97689.98;1728425;82;21222;-67
2021/03/31 00:10:44;;;;;;;;;;;;;;;8.05;62.20;97689.33;1718309;82;20215;-67
2021/03/31 00:13:11;;;;;;;;;;;;;;;8.07;62.18;97691.39;1720938;82;20501;-64
2021/03/31 00:15:39;;;;;;;;;;;;;;;8.13;62.18;97688.19;1731121;83;20232;-68
2021/03/31 00:18:07;;;;;;;;;;;;;;;8.17;62.04;97688.42;1720970;82;20219;-69
2021/03/31 00:20:36;;;;;;;;;;;;;;;8.12;62.13;97678.27;1728902;83;21214;-68
2021/03/31 00:23:04;;;;;;;;;;;;;;;8.02;62.39;97674.41;1730342;82;20569;-69
2021/03/31 00:25:32;;;;;;;;;;;;;;;7.92;62.54;97677.37;1730967;82;20215;-67
2021/03/31 00:28:00;;;;;;;;;;;;;;;7.93;62.61;97673.91;1720068;82;20257;-68
2021/03/31 00:30:29;;;;;;;;;;;;;;;7.93;62.64;97670.03;1722591;83;20238;-69
2021/03/31 00:32:57;;;;;;;;;;;;;;;7.96;62.72;97675.96;1716944;83;21192;-69
2021/03/31 00:35:24;;;;;;;;;;;;;;;8.03;62.81;97681.27;1724866;82;20230;-68
2021/03/31 00:37:51;;;;;;;;;;;;;;;8.08;62.69;97677.58;1733347;82;20235;-68
2021/03/31 00:40:20;;;;;;;;;;;;;;;8.13;62.53;97678.67;1725326;82;20218;-66
2021/03/31 00:42:47;;;;;;;;;;;;;;;8.22;62.21;97670.96;1730515;82;20269;-66
2021/03/31 00:45:16;;;;;;;;;;;;;;;8.23;62.13;97663.14;1718372;83;21363;-67
2021/03/31 00:47:44;;;;;;;;;;;;;;;8.27;61.86;97663.84;1726230;82;20222;-67
2021/03/31 00:50:17;;;;;;;;;;;;;;;8.26;61.82;97662.17;1697497;84;20220;-66
2021/03/31 00:52:44;;;;;;;;;;;;;;;8.29;61.68;97656.88;1720712;82;20793;-65
2021/03/31 00:55:13;;;;;;;;;;;;;;;8.30;61.57;97658.53;1698141;83;20250;-65
2021/03/31 00:57:40;;;;;;;;;;;;;;;8.25;61.65;97660.48;1729071;83;21385;-67
2021/03/31 01:00:09;;;;;;;;;;;;;;;8.19;61.73;97661.61;1730711;82;20288;-67
2021/03/31 01:02:39;;;;;;;;;;;;;;;8.14;61.99;97663.56;1728665;81;20255;-66
2021/03/31 01:05:12;;;;;;;;;;;;;;;8.14;62.08;97649.34;1727227;81;20246;-66
2021/03/31 01:07:41;;;;;;;;;;;;;;;8.11;62.07;97649.47;1735628;81;20244;-66
2021/03/31 01:10:11;;;;;;;;;;;;;;;8.05;62.30;97644.09;1721990;81;21210;-66
2021/03/31 01:13:00;;;;;;;;;;;;;;;7.98;62.45;97645.28;1730572;81;20244;-65
2021/03/31 01:15:33;;;;;;;;;;;;;;;7.93;62.82;97648.52;1731074;81;20803;-65
2021/03/31 01:18:05;;;;;;;;;;;;;;;7.95;62.83;97650.58;1724798;81;20254;-65
2021/03/31 01:21:12;;;;;;;;;;;;;;;8.00;62.68;97647.34;1726678;81;20229;-65
2021/03/31 01:24:00;;;;;;;;;;;;;;;8.08;62.55;97652.19;1732638;81;21411;-66
2021/03/31 01:26:48;;;;;;;;;;;;;;;8.18;62.32;97648.75;1725306;82;20237;-65
2021/03/31 01:29:39;;;;;;;;;;;;;;;8.25;62.13;97648.39;1721988;82;20294;-66
2021/03/31 01:32:29;;;;;;;;;;;;;;;8.29;61.81;97648.66;1699846;82;38635;-66
2021/03/31 01:34:58;;;;;;;;;;;;;;;8.25;61.77;97642.39;1724776;81;20250;-66
2021/03/31 01:37:38;;;;;;;;;;;;;;;8.18;62.00;97648.75;1728729;81;21251;-66
2021/03/31 01:40:06;;;;;;;;;;;;;;;8.12;62.15;97643.38;1733258;81;20563;-66
2021/03/31 01:42:36;;;;;;;;;;;;;;;8.11;62.31;97645.13;1738048;81;20293;-67
2021/03/31 01:45:06;;;;;;;;;;;;;;;8.16;62.04;97644.08;1725248;81;20225;-64
2021/03/31 01:47:35;;;;;;;;;;;;;;;8.11;62.05;97641.72;1729054;81;20236;-64
2021/03/31 01:50:04;;;;;;;;;;;;;;;8.03;62.24;97645.92;1722770;81;21213;-66
2021/03/31 01:52:31;;;;;;;;;;;;;;;7.98;62.52;97641.41;1732688;81;20689;-66
2021/03/31 01:54:59;;;;;;;;;;;;;;;7.99;62.51;97640.48;1727377;82;20237;-65
2021/03/31 01:57:26;;;;;;;;;;;;;;;8.00;62.63;97637.00;1723450;82;20236;-66
2021/03/31 01:59:54;;;;;;;;;;;;;;;8.06;62.76;97629.45;1723180;81;20339;-66
2021/03/31 02:02:24;;;;;;;;;;;;;;;8.05;62.71;97622.13;1723057;81;22057;-68
2021/03/31 02:04:53;;;;;;;;;;;;;;;8.06;62.93;97619.11;1715879;82;20240;-67
2021/03/31 02:07:20;;;;;;;;;;;;;;;8.16;62.67;97625.98;1710932;82;20250;-65
2021/03/31 02:09:48;;;;;;;;;;;;;;;8.22;62.38;97612.36;1722460;83;21277;-64
2021/03/31 02:12:21;;;;;;;;;;;;;;;8.24;62.20;97613.55;1727966;83;20266;-65
2021/03/31 02:14:49;;;;;;;;;;;;;;;8.25;62.17;97605.73;1714063;82;22294;-66
2021/03/31 02:17:24;;;;;;;;;;;;;;;8.18;62.13;97604.34;1718133;83;20226;-65
2021/03/31 02:19:53;;;;;;;;;;;;;;;8.11;62.45;97606.36;1726904;82;20504;-64
2021/03/31 02:22:22;;;;;;;;;;;;;;;8.07;62.47;97608.67;1722485;82;20536;-63
2021/03/31 02:24:50;;;;;;;;;;;;;;;8.07;62.60;97608.67;1713921;83;20227;-66
2021/03/31 02:27:17;;;;;;;;;;;;;;;8.00;62.65;97609.03;1728273;83;21331;-66
2021/03/31 02:29:46;;;;;;;;;;;;;;;8.00;62.86;97618.08;1714220;83;20265;-61
2021/03/31 02:32:15;;;;;;;;;;;;;;;8.05;62.68;97617.42;1722779;82;20317;-63
2021/03/31 02:34:43;;;;;;;;;;;;;;;8.10;62.75;97607.25;1711630;83;20691;-63
2021/03/31 02:37:12;;;;;;;;;;;;;;;8.16;62.53;97610.47;1713052;83;20240;-63
2021/03/31 02:39:40;;;;;;;;;;;;;;;8.15;62.55;97607.05;1719432;83;21152;-64
2021/03/31 02:42:09;;;;;;;;;;;;;;;8.16;62.53;97600.98;1727305;82;20258;-64
2021/03/31 02:44:42;;;;;;;;;;;;;;;8.11;62.71;97602.48;1710681;82;20234;-64
2021/03/31 02:47:10;;;;;;;;;;;;;;;8.10;62.79;97598.20;1726509;83;20240;-64
2021/03/31 02:49:39;;;;;;;;;;;;;;;8.04;62.95;97597.64;1710971;83;20255;-64
2021/03/31 02:52:07;;;;;;;;;;;;;;;8.02;63.06;97600.75;1717830;82;21370;-64
2021/03/31 02:54:34;;;;;;;;;;;;;;;8.01;63.47;97597.77;1705477;83;20532;-63
2021/03/31 02:57:05;;;;;;;;;;;;;;;7.96;64.00;97592.83;1717080;82;20238;-64
2021/03/31 02:59:32;;;;;;;;;;;;;;;7.94;64.50;97592.03;1718197;83;20248;-63
2021/03/31 03:01:59;;;;;;;;;;;;;;;7.93;64.67;97589.08;1724955;81;21529;-63
2021/03/31 03:04:27;;;;;;;;;;;;;;;7.93;64.89;97587.33;1718767;83;21374;-63
2021/03/31 03:06:54;;;;;;;;;;;;;;;7.93;65.04;97589.08;1719983;83;20236;-64
2021/03/31 03:09:21;;;;;;;;;;;;;;;7.92;65.09;97589.52;1722451;82;20300;-63
2021/03/31 03:11:50;;;;;;;;;;;;;;;7.92;65.08;97586.10;1727717;82;20236;-63
2021/03/31 03:14:17;;;;;;;;;;;;;;;7.95;65.13;97591.60;1718525;82;20274;-63
2021/03/31 03:16:45;;;;;;;;;;;;;;;8.00;65.15;97587.89;1723417;81;21214;-61
2021/03/31 03:19:14;;;;;;;;;;;;;;;8.06;65.00;97586.80;1716139;82;20520;-63
2021/03/31 03:21:41;;;;;;;;;;;;;;;8.07;64.99;97582.83;1726503;81;20571;-63
2021/03/31 03:24:11;;;;;;;;;;;;;;;8.08;65.07;97583.69;1723933;82;20225;-64
2021/03/31 03:26:39;;;;;;;;;;;;;;;8.07;65.12;97580.24;1731596;81;20493;-63
2021/03/31 03:29:07;;;;;;;;;;;;;;;8.06;65.15;97584.22;1718758;82;21207;-64
2021/03/31 03:31:35;;;;;;;;;;;;;;;8.06;65.24;97579.05;1717794;82;20664;-64
2021/03/31 03:34:08;;;;;;;;;;;;;;;8.05;65.30;97582.53;1730120;82;20213;-66
2021/03/31 03:36:42;;;;;;;;;;;;;;;8.01;65.35;97588.30;1728889;82;20276;-65
2021/03/31 03:39:10;;;;;;;;;;;;;;;7.98;65.47;97581.13;1725900;82;20289;-65
2021/03/31 03:41:37;;;;;;;;;;;;;;;7.96;65.68;97580.34;1727133;81;21210;-66
2021/03/31 03:44:05;;;;;;;;;;;;;;;8.00;65.58;97582.73;1721393;82;20223;-67
2021/03/31 03:46:35;;;;;;;;;;;;;;;8.06;65.55;97581.63;1724249;81;20233;-66
2021/03/31 03:49:04;;;;;;;;;;;;;;;8.13;65.28;97577.86;1721771;82;20526;-66
2021/03/31 03:51:32;;;;;;;;;;;;;;;8.20;65.06;97579.24;1728417;82;20209;-66
2021/03/31 03:54:00;;;;;;;;;;;;;;;8.22;64.94;97581.77;1722579;81;21207;-65
2021/03/31 03:56:27;;;;;;;;;;;;;;;8.19;64.91;97577.59;1723714;82;20246;-66
2021/03/31 03:58:54;;;;;;;;;;;;;;;8.16;65.07;97571.69;1723047;82;20235;-65
2021/03/31 04:01:22;;;;;;;;;;;;;;;8.09;65.30;97573.72;1716041;81;20265;-65
2021/03/31 04:03:52;;;;;;;;;;;;;;;8.00;65.42;97571.09;1726299;81;20246;-65
2021/03/31 04:06:20;;;;;;;;;;;;;;;7.99;65.73;97576.33;1698442;82;22332;-65
2021/03/31 04:08:47;;;;;;;;;;;;;;;8.06;65.75;97577.29;1731191;81;20628;-65
2021/03/31 04:11:15;;;;;;;;;;;;;;;8.13;65.69;97579.61;1731742;81;20212;-65
2021/03/31 04:13:44;;;;;;;;;;;;;;;8.18;65.46;97577.66;1726055;82;20225;-65
2021/03/31 04:16:11;;;;;;;;;;;;;;;8.18;65.38;97577.66;1724255;81;20261;-65
2021/03/31 04:18:39;;;;;;;;;;;;;;;8.18;65.38;97581.06;1726860;81;21443;-64
2021/03/31 04:21:09;;;;;;;;;;;;;;;8.20;65.22;97584.41;1724927;81;20219;-65
2021/03/31 04:23:37;;;;;;;;;;;;;;;8.15;65.34;97587.66;1729719;81;20246;-65
2021/03/31 04:26:05;;;;;;;;;;;;;;;8.17;65.34;97581.13;1730951;81;20548;-65
2021/03/31 04:28:33;;;;;;;;;;;;;;;8.21;65.29;97584.81;1722835;81;20483;-64
2021/03/31 04:31:01;;;;;;;;;;;;;;;8.23;65.34;97587.33;1728374;82;21225;-65
2021/03/31 04:33:28;;;;;;;;;;;;;;;8.29;65.22;97588.35;1724524;81;20255;-65
2021/03/31 04:35:56;;;;;;;;;;;;;;;8.31;65.12;97591.70;1717859;81;20291;-65
2021/03/31 04:38:25;;;;;;;;;;;;;;;8.37;65.11;97592.72;1711632;82;20252;-65
2021/03/31 04:41:00;;;;;;;;;;;;;;;8.44;64.86;97604.48;1729035;81;20237;-66
2021/03/31 04:43:30;;;;;;;;;;;;;;;8.50;64.85;97596.88;1734978;82;21451;-63
2021/03/31 04:45:58;;;;;;;;;;;;;;;8.60;65.58;97600.75;1734920;81;20238;-72
2021/03/31 04:48:26;;;;;;;;;;;;;;;8.73;65.37;97597.57;1733862;82;20286;-63
2021/03/31 04:50:55;;;;;;;;;;;;;;;8.85;64.61;97595.72;1734346;82;20227;-63
2021/03/31 04:53:23;;;;;;;;;;;;;;;8.93;64.32;97597.92;1730846;82;20215;-64
2021/03/31 04:55:50;;;;;;;;;;;;;;;8.92;63.85;97601.44;1735047;82;22309;-64
2021/03/31 04:58:18;;;;;;;;;;;;;;;8.87;63.60;97601.65;1734996;81;20513;-63
2021/03/31 05:00:45;;;;;;;;;;;;;;;8.81;63.80;97603.22;1726647;82;20695;-66
2021/03/31 05:03:12;;;;;;;;;;;;;;;8.79;63.94;97605.88;1718489;83;20235;-65
2021/03/31 05:05:40;;;;;;;;;;;;;;;8.76;63.94;97602.14;1718307;83;21585;-69
2021/03/31 05:08:08;;;;;;;;;;;;;;;8.66;64.28;97600.91;1716393;83;22291;-68
2021/03/31 05:10:37;;;;;;;;;;;;;;;8.53;64.69;97599.80;1718314;83;20282;-67
2021/03/31 05:13:05;;;;;;;;;;;;;;;8.44;65.21;97609.66;1718562;83;20282;-66
2021/03/31 05:15:32;;;;;;;;;;;;;;;8.45;65.37;97601.00;1718401;83;20248;-67
2021/03/31 05:18:00;;;;;;;;;;;;;;;8.47;65.48;97604.34;1718527;83;21645;-67
2021/03/31 05:20:27;;;;;;;;;;;;;;;8.48;65.67;97604.72;1718502;83;21336;-66
2021/03/31 05:22:54;;;;;;;;;;;;;;;8.47;65.77;97608.23;1718090;83;20302;-67
2021/03/31 05:25:22;;;;;;;;;;;;;;;8.48;65.78;97606.00;1718565;83;20227;-63
2021/03/31 05:27:51;;;;;;;;;;;;;;;8.54;65.90;97607.48;1718739;81;20535;-64
2021/03/31 05:30:20;;;;;;;;;;;;;;;8.63;65.76;97608.80;1710054;83;20239;-64
2021/03/31 05:32:47;;;;;;;;;;;;;;;8.71;65.91;97606.70;1703245;83;21267;-64
2021/03/31 05:35:16;;;;;;;;;;;;;;;8.71;66.16;97612.34;1718455;83;20274;-64
2021/03/31 05:37:44;;;;;;;;;;;;;;;8.65;66.60;97618.62;1718231;83;20244;-68
2021/03/31 05:40:12;;;;;;;;;;;;;;;8.70;66.80;97614.53;1718419;83;20216;-74
2021/03/31 05:42:41;;;;;;;;;;;;;;;8.74;67.08;97614.32;1718623;82;20581;-73
2021/03/31 05:45:10;;;;;;;;;;;;;;;8.76;67.30;97613.78;1718616;83;21455;-74
2021/03/31 05:47:44;;;;;;;;;;;;;;;8.72;67.66;97612.27;1718516;83;20243;-73
2021/03/31 05:50:14;;;;;;;;;;;;;;;8.70;68.45;97616.69;1718405;83;20309;-73
2021/03/31 05:52:43;;;;;;;;;;;;;;;8.65;68.94;97620.77;1718495;83;20227;-73
2021/03/31 05:55:12;;;;;;;;;;;;;;;8.64;69.74;97612.62;1718472;83;20499;-73
2021/03/31 05:57:40;;;;;;;;;;;;;;;8.56;69.91;97622.48;1718493;83;21281;-74
2021/03/31 06:00:20;;;;;;;;;;;;;;;8.47;70.42;97618.58;1718655;82;20219;-69
2021/03/31 06:02:48;;;;;;;;;;;;;;;8.46;71.10;97622.06;1728609;81;20238;-64
2021/03/31 06:05:16;;;;;;;;;;;;;;;8.51;71.51;97619.27;1728014;83;20578;-66
2021/03/31 06:07:47;;;;;;;;;;;;;;;8.58;71.60;97617.23;1716099;83;20235;-65
2021/03/31 06:10:21;;;;;;;;;;;;;;;8.64;71.77;97626.02;1728481;83;20285;-64
2021/03/31 06:12:56;;;;;;;;;;;;;;;8.64;71.99;97615.20;1704470;82;20502;-64
2021/03/31 06:15:33;;;;;;;;;;;;;;;8.57;72.05;97617.70;1681052;84;20488;-63
2021/03/31 06:18:10;;;;;;;;;;;;;;;8.55;72.51;97616.94;1717460;82;20524;-63
2021/03/31 06:20:59;;;;;;;;;;;;;;;8.55;72.71;97610.91;1734231;82;20501;-63
2021/03/31 06:23:49;;;;;;;;;;;;;;;8.51;72.84;97611.51;1698178;83;21343;-65
2021/03/31 06:26:26;;;;;;;;;;;;;;;8.44;73.46;97607.53;1741495;82;21103;-66
2021/03/31 06:28:57;;;;;;;;;;;;;;;8.37;73.69;97611.26;1714366;81;20222;-67
2021/03/31 06:31:29;;;;;;;;;;;;;;;8.38;73.97;97604.72;1706395;83;20570;-66
2021/03/31 06:33:58;;;;;;;;;;;;;;;8.46;73.93;97609.13;1727756;81;20279;-66
2021/03/31 06:36:34;;;;;;;;;;;;;;;8.51;73.69;97610.67;1706695;82;21213;-67
2021/03/31 06:39:03;;;;;;;;;;;;;;;8.50;73.76;97608.52;1726704;81;20518;-64
2021/03/31 06:41:34;;;;;;;;;;;;;;;8.51;73.70;97605.04;1723711;83;20258;-65
2021/03/31 06:44:20;;;;;;;;;;;;;;;8.50;73.89;97608.52;1728411;83;20238;-66
2021/03/31 06:46:56;;;;;;;;;;;;;;;8.50;74.04;97609.81;1719346;81;20229;-65
2021/03/31 06:49:21;;;;;;;;;;;;;;;8.51;74.28;97611.97;1719999;81;21493;-64
2021/03/31 06:51:49;;;;;;;;;;;;;;;8.59;74.19;97608.58;1726612;81;20609;-64
2021/03/31 06:54:20;;;;;;;;;;;;;;;8.57;74.33;97611.23;1719756;83;20284;-64
2021/03/31 06:56:55;;;;;;;;;;;;;;;8.61;74.48;97610.63;1713850;83;20242;-64
2021/03/31 06:59:28;;;;;;;;;;;;;;;8.64;74.32;97607.91;1728860;82;20510;-65
2021/03/31 07:01:56;;;;;;;;;;;;;;;8.68;74.42;97607.30;1724877;82;23527;-65
2021/03/31 07:04:27;;;;;;;;;;;;;;;8.68;74.61;97599.54;1721172;82;20238;-63
2021/03/31 07:07:07;;;;;;;;;;;;;;;8.66;74.69;97603.02;1703401;83;20215;-63
2021/03/31 07:09:37;;;;;;;;;;;;;;;8.65;75.06;97607.84;1729382;81;20327;-65
2021/03/31 07:12:21;;;;;;;;;;;;;;;8.70;75.11;97606.34;1747299;81;20284;-63
2021/03/31 07:14:49;;;;;;;;;;;;;;;8.77;75.08;97598.66;1752843;82;21372;-65
2021/03/31 07:17:27;;;;;;;;;;;;;;;8.86;75.17;97601.25;1732342;82;20637;-65
2021/03/31 07:19:55;;;;;;;;;;;;;;;8.95;75.00;97600.00;1739458;81;20265;-64
2021/03/31 07:22:23;;;;;;;;;;;;;;;8.96;74.87;97600.36;1715306;82;20226;-65
2021/03/31 07:24:55;;;;;;;;;;;;;;;8.93;75.05;97601.36;1741973;82;20485;-65
2021/03/31 07:27:25;;;;;;;;;;;;;;;9.00;75.24;97601.44;1739212;81;21451;-64
2021/03/31 07:30:06;;;;;;;;;;;;;;;9.13;75.19;97600.40;1738516;81;20238;-63
2021/03/31 07:32:43;;;;;;;;;;;;;;;9.26;75.00;97603.67;1741047;82;20514;-63
2021/03/31 07:35:11;;;;;;;;;;;;;;;9.39;75.00;97606.03;1753023;81;20998;-63
2021/03/31 07:37:39;;;;;;;;;;;;;;;9.55;74.84;97605.65;1747242;81;20517;-63
2021/03/31 07:40:09;;;;;;;;;;;;;;;9.68;74.34;97609.77;1721488;82;21212;-64
2021/03/31 07:42:38;;;;;;;;;;;;;;;9.79;74.19;97608.41;1738977;82;20231;-64
2021/03/31 07:45:07;;;;;;;;;;;;;;;9.90;73.93;97606.07;1736977;82;20298;-64
2021/03/31 07:47:35;;;;;;;;;;;;;;;10.01;73.81;97599.87;1746975;81;20217;-64
2021/03/31 07:50:03;;;;;;;;;;;;;;;10.13;73.62;97602.28;1746677;81;20241;-64
2021/03/31 07:52:52;;;;;;;;;;;;;;;10.19;73.14;97601.96;1737369;81;21448;-64
2021/03/31 07:55:41;;;;;;;;;;;;;;;10.21;73.27;97599.29;1694588;84;20519;-63
2021/03/31 07:58:17;;;;;;;;;;;;;;;10.25;73.09;97600.82;1735019;82;20241;-63
2021/03/31 08:00:57;;;;;;;;;;;;;;;10.27;72.95;97600.27;1740786;81;20223;-63
2021/03/31 08:03:23;;;;;;;;;;;;;;;10.26;72.99;97595.55;1725224;81;20230;-64
2021/03/31 08:06:02;;;;;;;;;;;;;;;10.25;73.20;97591.73;1745884;81;21201;-64
2021/03/31 08:08:30;;;;;;;;;;;;;;;10.32;73.49;97593.11;1701781;83;20240;-63
2021/03/31 08:10:59;;;;;;;;;;;;;;;10.44;73.38;97589.02;1747064;82;20217;-63
2021/03/31 08:13:32;;;;;;;;;;;;;;;10.52;72.87;97588.61;1738422;82;20220;-64
2021/03/31 08:16:04;;;;;;;;;;;;;;;10.52;72.90;97582.12;1728843;83;20981;-64
2021/03/31 08:18:32;;;;;;;;;;;;;;;10.50;72.66;97589.98;1726083;81;21376;-63
2021/03/31 08:20:59;;;;;;;;;;;;;;;10.46;72.82;97589.31;1738743;81;20317;-63
2021/03/31 08:23:47;;;;;;;;;;;;;;;10.49;72.92;97589.16;1706509;83;20230;-63
2021/03/31 08:26:35;;;;;;;;;;;;;;;10.49;73.07;97587.86;1687535;82;20217;-63
2021/03/31 08:29:06;;;;;;;;;;;;;;;10.47;73.31;97587.08;1728683;83;20217;-64
2021/03/31 08:31:39;;;;;;;;;;;;;;;10.53;73.15;97589.82;1728641;81;21446;-65
2021/03/31 08:34:09;;;;;;;;;;;;;;;10.53;73.15;97587.23;1725172;83;20255;-64
2021/03/31 08:36:40;;;;;;;;;;;;;;;10.55;73.18;97583.25;1727791;81;20574;-65
2021/03/31 08:39:10;;;;;;;;;;;;;;;10.57;73.35;97584.00;1728251;82;20241;-65
2021/03/31 08:41:38;;;;;;;;;;;;;;;10.68;73.33;97577.29;1728663;83;20300;-63
2021/03/31 08:44:22;;;;;;;;;;;;;;;10.82;72.97;97587.37;1728630;83;21206;-66
2021/03/31 08:46:47;;;;;;;;;;;;;;;10.97;72.86;97570.95;1728033;81;20244;-64
2021/03/31 08:49:21;;;;;;;;;;;;;;;11.10;72.28;97575.44;1728722;81;20238;-64
2021/03/31 08:51:50;;;;;;;;;;;;;;;11.27;72.10;97572.72;1733668;81;20213;-65
2021/03/31 08:54:19;;;;;;;;;;;;;;;11.54;71.22;97562.93;1728633;83;20217;-64
2021/03/31 08:56:48;;;;;;;;;;;;;;;11.78;70.42;97556.75;1725991;82;21189;-65
2021/03/31 08:59:16;;;;;;;;;;;;;;;11.99;70.22;97556.39;1728570;83;20321;-64
2021/03/31 09:01:43;;;;;;;;;;;;;;;12.27;68.96;97556.84;1724236;80;20218;-63
2021/03/31 09:04:21;;;;;;;;;;;;;;;12.35;68.55;97558.49;1758637;80;20240;-64
2021/03/31 09:06:49;;;;;;;;;;;;;;;12.41;67.96;97562.50;1725908;81;20219;-64
2021/03/31 09:09:18;;;;;;;;;;;;;;;12.41;68.49;97556.81;1757257;81;20216;-64
2021/03/31 09:11:46;;;;;;;;;;;;;;;12.57;68.21;97546.28;1735092;82;21906;-64
2021/03/31 09:14:21;;;;;;;;;;;;;;;12.68;67.18;97548.19;1747811;82;20502;-64
2021/03/31 09:16:58;;;;;;;;;;;;;;;12.74;67.34;97551.71;1698416;82;20402;-64
2021/03/31 09:19:35;;;;;;;;;;;;;;;12.93;66.99;97550.08;1820413;76;20206;-65
2021/03/31 09:22:07;;;;;;;;;;;;;;;13.01;66.32;97548.25;1788394;79;20219;-66
2021/03/31 09:24:36;;;;;;;;;;;;;;;13.08;66.10;97545.16;1803473;79;21196;-64
2021/03/31 09:27:09;;;;;;;;;;;;;;;13.14;65.94;97545.23;1754698;79;20232;-63
2021/03/31 09:29:41;;;;;;;;;;;;;;;13.25;65.91;97545.34;1786795;79;20113;-63
2021/03/31 09:32:07;;;;;;;;;;;;;;;13.50;65.67;97543.73;1786653;79;20214;-65
2021/03/31 09:34:35;;;;;;;;;;;;;;;13.75;65.33;97541.63;1786109;79;20168;-63
2021/03/31 09:37:07;;;;;;;;;;;;;;;13.95;64.83;97536.81;1788302;79;21185;-63
2021/03/31 09:39:54;;;;;;;;;;;;;;;14.24;64.44;97536.55;1804861;79;20136;-64
2021/03/31 09:42:31;;;;;;;;;;;;;;;14.57;62.34;97533.30;1795573;79;20232;-63
2021/03/31 09:44:59;;;;;;;;;;;;;;;14.73;62.20;97529.98;1802428;79;20262;-64
2021/03/31 09:47:29;;;;;;;;;;;;;;;14.92;61.98;97528.66;1787494;79;20506;-65
2021/03/31 09:49:57;;;;;;;;;;;;;;;15.11;61.20;97520.28;1791923;79;21190;-62
2021/03/31 09:52:28;;;;;;;;;;;;;;;15.12;60.80;97518.05;1787434;79;20227;-63
2021/03/31 09:55:02;;;;;;;;;;;;;;;15.01;61.04;97520.12;1815808;79;20522;-63
2021/03/31 09:57:29;;;;;;;;;;;;;;;14.93;61.43;97523.78;1807792;79;20394;-64
2021/03/31 10:00:12;;;;;;;;;;;;;;;14.88;62.07;97512.83;1796013;77;20222;-63
2021/03/31 10:02:41;;;;;;;;;;;;;;;14.96;62.22;97510.49;1797210;77;22352;-64
2021/03/31 10:05:13;;;;;;;;;;;;;;;15.08;62.00;97507.44;1771282;79;20228;-65
2021/03/31 10:07:39;;;;;;;;;;;;;;;15.14;62.04;97509.61;1753284;79;20238;-66
2021/03/31 10:10:09;;;;;;;;;;;;;;;15.24;62.06;97507.96;1754840;80;20244;-64
2021/03/31 10:12:36;;;;;;;;;;;;;;;15.38;61.68;97503.50;1754342;82;20228;-65
2021/03/31 10:15:06;;;;;;;;;;;;;;;15.49;61.35;97503.98;1777566;80;21379;-63
2021/03/31 10:17:33;;;;;;;;;;;;;;;15.56;61.20;97504.72;1782961;80;20526;-63
2021/03/31 10:20:18;;;;;;;;;;;;;;;15.61;61.07;97499.96;1798195;80;20138;-63
2021/03/31 10:22:53;;;;;;;;;;;;;;;15.59;61.08;97497.95;1779650;79;20280;-63
2021/03/31 10:25:26;;;;;;;;;;;;;;;15.56;61.17;97500.79;1803317;79;20241;-64
2021/03/31 10:28:00;;;;;;;;;;;;;;;15.53;61.25;97501.02;1790195;79;21198;-65
2021/03/31 10:30:33;;;;;;;;;;;;;;;15.48;61.48;97499.69;1793320;79;20220;-64
2021/03/31 10:33:03;;;;;;;;;;;;;;;15.45;61.80;97498.16;1789096;79;20246;-65
2021/03/31 10:35:50;;;;;;;;;;;;;;;15.46;61.71;97490.20;1793484;79;20231;-63
2021/03/31 10:38:28;;;;;;;;;;;;;;;15.48;61.71;97487.92;1797041;79;20271;-63
2021/03/31 10:41:35;;;;;;;;;;;;;;;15.52;61.93;97489.36;1773485;81;20536;-65
2021/03/31 10:49:44;;;;;;;;;;;;;;;15.75;61.24;97484.50;1782383;79;20217;-64
2021/03/31 10:54:18;;;;;;;;;;;;;;;15.93;61.06;97479.65;1794272;79;21207;-64
2021/03/31 10:56:54;;;;;;;;;;;;;;;15.98;60.76;97477.50;1804974;79;20293;-63
2021/03/31 10:59:17;;;;;;;;;;;;;;;16.01;60.63;97469.41;1772051;79;20504;-63
2021/03/31 11:01:44;;;;;;;;;;;;;;;16.06;60.46;97467.74;1772307;79;20535;-64
2021/03/31 11:04:12;;;;;;;;;;;;;;;16.05;60.25;97467.38;1781919;79;20222;-63
2021/03/31 11:06:39;;;;;;;;;;;;;;;16.03;60.43;97469.30;1786381;79;21202;-63
2021/03/31 11:09:08;;;;;;;;;;;;;;;16.06;60.13;97465.61;1775754;79;20220;-63
2021/03/31 11:11:39;;;;;;;;;;;;;;;16.04;60.05;97466.22;1773541;81;20210;-63
2021/03/31 11:14:06;;;;;;;;;;;;;;;16.01;60.01;97469.89;1800431;78;20569;-63
2021/03/31 11:16:37;;;;;;;;;;;;;;;16.01;59.99;97467.28;1773753;79;20287;-63
2021/03/31 11:25:32;;;;;;;;;;;;;;;15.97;59.95;97461.45;1766668;80;20225;-64
2021/03/31 11:27:10;;;;;;;;;;;;;;;15.77;60.11;97458.25;1759562;80;20219;-63
2021/03/31 11:29:38;;;;;;;;;;;;;;;15.68;60.34;97458.46;1775033;79;20241;-63
2021/03/31 11:32:06;;;;;;;;;;;;;;;15.62;60.65;97447.16;1782153;80;21197;-64
2021/03/31 11:34:33;;;;;;;;;;;;;;;15.61;60.98;97450.26;1783918;80;20238;-62
2021/03/31 11:37:03;;;;;;;;;;;;;;;15.61;61.23;97448.95;1751190;80;20284;-63
2021/03/31 11:39:31;;;;;;;;;;;;;;;15.61;61.37;97443.72;1771824;79;20494;-63
2021/03/31 11:42:00;;;;;;;;;;;;;;;15.68;61.32;97451.09;1781410;79;20505;-64
2021/03/31 11:44:27;;;;;;;;;;;;;;;15.70;61.27;97442.64;1763079;80;21361;-63
2021/03/31 11:46:55;;;;;;;;;;;;;;;15.71;61.12;97442.53;1765783;80;20261;-63
2021/03/31 11:49:24;;;;;;;;;;;;;;;15.74;61.02;97444.06;1754221;82;20228;-63
2021/03/31 11:51:51;;;;;;;;;;;;;;;15.73;61.00;97441.92;1762942;80;20218;-62
2021/03/31 11:54:19;;;;;;;;;;;;;;;15.69;61.05;97444.89;1781074;80;20238;-63
2021/03/31 11:56:46;;;;;;;;;;;;;;;15.59;61.32;97447.39;1775297;80;21985;-63
2021/03/31 11:59:14;;;;;;;;;;;;;;;15.50;61.47;97439.79;1761378;80;20235;-63
2021/03/31 12:01:41;;;;;;;;;;;;;;;15.44;61.62;97432.41;1785214;80;20235;-63
2021/03/31 12:04:08;;;;;;;;;;;;;;;15.36;61.63;97436.94;1784129;80;20289;-63
2021/03/31 12:06:36;;;;;;;;;;;;;;;15.27;61.82;97428.00;1769326;79;20285;-62
2021/03/31 12:09:06;;;;;;;;;;;;;;;15.22;62.08;97430.61;1767881;80;21198;-63
2021/03/31 12:11:33;;;;;;;;;;;;;;;15.20;62.21;97429.91;1768913;78;20361;-63
2021/03/31 12:14:02;;;;;;;;;;;;;;;15.16;62.40;97426.66;1759382;79;20137;-63
2021/03/31 12:16:29;;;;;;;;;;;;;;;15.16;62.37;97424.53;1785212;80;20493;-63
2021/03/31 12:18:58;;;;;;;;;;;;;;;15.16;62.36;97421.92;1760831;80;20500;-63
2021/03/31 12:21:25;;;;;;;;;;;;;;;15.16;62.35;97419.31;1759045;80;21198;-64
2021/03/31 12:23:54;;;;;;;;;;;;;;;15.16;62.43;97416.21;1771851;80;20214;-64
2021/03/31 12:26:21;;;;;;;;;;;;;;;15.19;62.51;97413.37;1788283;79;20497;-63
2021/03/31 12:28:55;;;;;;;;;;;;;;;15.19;62.33;97412.06;1759771;79;21236;-62
2021/03/31 12:31:19;;;;;;;;;;;;;;;15.16;62.41;97405.75;1757717;77;20223;-62
2021/03/31 12:33:46;;;;;;;;;;;;;;;15.13;62.44;97406.47;1760108;80;21163;-62
2021/03/31 12:36:13;;;;;;;;;;;;;;;15.05;62.48;97400.54;1786122;79;20217;-62
2021/03/31 12:38:42;;;;;;;;;;;;;;;15.02;62.64;97402.07;1770793;79;20151;-62
2021/03/31 12:41:10;;;;;;;;;;;;;;;15.00;62.67;97392.19;1767249;79;20536;-64
2021/03/31 12:43:37;;;;;;;;;;;;;;;15.01;62.57;97389.95;1780841;80;20219;-63
2021/03/31 12:46:04;;;;;;;;;;;;;;;15.04;62.42;97389.72;1758301;80;22889;-62
2021/03/31 12:48:32;;;;;;;;;;;;;;;15.04;62.44;97388.41;1757192;80;20319;-63
2021/03/31 12:51:03;;;;;;;;;;;;;;;15.03;62.46;97386.73;1758873;80;20225;-62
2021/03/31 12:53:49;;;;;;;;;;;;;;;15.04;62.53;97383.18;1769498;78;20214;-63
2021/03/31 12:56:13;;;;;;;;;;;;;;;15.07;62.64;97378.55;1783978;79;20218;-63
2021/03/31 12:58:42;;;;;;;;;;;;;;;15.11;62.97;97369.17;1781361;80;21382;-63
2021/03/31 13:01:21;;;;;;;;;;;;;;;15.12;63.13;97364.31;1757350;80;20216;-63
2021/03/31 13:03:46;;;;;;;;;;;;;;;15.14;63.23;97359.79;1753970;80;20216;-63
2021/03/31 13:06:14;;;;;;;;;;;;;;;15.14;63.35;97359.30;1782821;80;20226;-63
2021/03/31 13:08:51;;;;;;;;;;;;;;;15.21;63.41;97358.36;1758680;80;20214;-63
2021/03/31 13:11:33;;;;;;;;;;;;;;;15.25;63.26;97351.95;1760081;78;20234;-63
2021/03/31 13:14:58;;;;;;;;;;;;;;;15.27;63.13;97350.87;1762521;80;20218;-63
2021/03/31 13:17:49;;;;;;;;;;;;;;;15.31;62.95;97350.63;1768505;80;20234;-62
2021/03/31 13:23:51;;;;;;;;;;;;;;;15.32;62.92;97347.08;1764874;80;20216;-63
2021/03/31 13:26:24;;;;;;;;;;;;;;;15.28;62.79;97343.39;1752933;81;21195;-62
2021/03/31 13:32:02;;;;;;;;;;;;;;;15.34;62.62;97334.23;1785292;79;20486;-63